Hamilton, Pennsylvania
Current Conditions -  °F | °C
As of 2:55 PM on Friday 24 Oct 2014 (Local Time) from KIDI Reporting Station
Clear Clear  
Wind Chill: 57°   Ceiling: Unl
Heat Index: 57°   Visibility: 10mi
Dew Point: 41°   Wind: 8mph
Humidity: 55%   Direction: 290°WNW
Pressure: 30.04"   Gusts: 18mph
Location:  40.92°N, 79.08°W
Report Text: KIDI 241855Z AUTO 29007G16KT 260V320 10SM CLR 14/05 A3004 RMK A01
Loading
Personal Weather Stations






























Interactive Weather Map
Tropical Storm Tracking
New forecast layout! Learn more

10-Day Weather Forecast

Advertisements
Track Severe Weather on mobile